sensor_id;sensor_type;location;lat;lon;timestamp;pressure;altitude;pressure_sealevel;temperature;humidity
52745;BME280;38637;49.984;20.426;2023-02-11T00:00:41;101021.16;;;0.61;73.45
52745;BME280;38637;49.984;20.426;2023-02-11T00:03:07;101017.47;;;0.62;73.11
52745;BME280;38637;49.984;20.426;2023-02-11T00:05:33;101015.47;;;0.64;73.39
52745;BME280;38637;49.984;20.426;2023-02-11T00:07:58;101004.09;;;0.70;73.22
52745;BME280;38637;49.984;20.426;2023-02-11T00:10:24;101003.44;;;0.76;73.28
52745;BME280;38637;49.984;20.426;2023-02-11T00:12:49;101008.19;;;0.82;72.75
52745;BME280;38637;49.984;20.426;2023-02-11T00:15:14;101014.28;;;0.84;72.98
52745;BME280;38637;49.984;20.426;2023-02-11T00:17:40;101012.81;;;0.90;72.88
52745;BME280;38637;49.984;20.426;2023-02-11T00:20:05;101013.31;;;0.94;72.57
52745;BME280;38637;49.984;20.426;2023-02-11T00:22:30;101005.94;;;0.96;72.94
52745;BME280;38637;49.984;20.426;2023-02-11T00:24:56;101003.78;;;0.99;72.68
52745;BME280;38637;49.984;20.426;2023-02-11T00:27:21;101005.63;;;0.99;72.62
52745;BME280;38637;49.984;20.426;2023-02-11T00:29:47;100992.66;;;0.94;72.49
52745;BME280;38637;49.984;20.426;2023-02-11T00:32:12;100985.06;;;0.89;72.77
52745;BME280;38637;49.984;20.426;2023-02-11T00:34:37;100985.41;;;0.95;72.68
52745;BME280;38637;49.984;20.426;2023-02-11T00:37:03;100977.53;;;0.93;73.02
52745;BME280;38637;49.984;20.426;2023-02-11T00:39:29;100969.78;;;0.90;72.77
52745;BME280;38637;49.984;20.426;2023-02-11T00:41:55;100971.94;;;0.86;72.98
52745;BME280;38637;49.984;20.426;2023-02-11T00:44:20;100967.03;;;0.82;72.85
52745;BME280;38637;49.984;20.426;2023-02-11T00:46:46;100978.28;;;0.77;72.80
52745;BME280;38637;49.984;20.426;2023-02-11T00:49:11;100974.75;;;0.77;72.72
52745;BME280;38637;49.984;20.426;2023-02-11T00:51:36;100983.97;;;0.74;72.54
52745;BME280;38637;49.984;20.426;2023-02-11T00:54:02;100967.13;;;0.72;72.29
52745;BME280;38637;49.984;20.426;2023-02-11T00:56:27;100964.44;;;0.72;72.26
52745;BME280;38637;49.984;20.426;2023-02-11T00:58:53;100964.06;;;0.67;72.55
52745;BME280;38637;49.984;20.426;2023-02-11T01:01:18;100959.31;;;0.61;72.58
52745;BME280;38637;49.984;20.426;2023-02-11T01:03:44;100959.44;;;0.51;72.55
52745;BME280;38637;49.984;20.426;2023-02-11T01:06:10;100953.16;;;0.42;72.58
52745;BME280;38637;49.984;20.426;2023-02-11T01:08:35;100959.31;;;0.35;72.92
52745;BME280;38637;49.984;20.426;2023-02-11T01:11:05;100946.66;;;0.27;73.03
52745;BME280;38637;49.984;20.426;2023-02-11T01:13:32;100935.16;;;0.17;73.42
52745;BME280;38637;49.984;20.426;2023-02-11T01:15:58;100912.72;;;0.00;73.84
52745;BME280;38637;49.984;20.426;2023-02-11T01:18:24;100921.91;;;-0.03;74.13
52745;BME280;38637;49.984;20.426;2023-02-11T01:20:51;100906.19;;;-0.15;74.33
52745;BME280;38637;49.984;20.426;2023-02-11T01:23:17;100912.25;;;-0.13;74.17
52745;BME280;38637;49.984;20.426;2023-02-11T01:25:42;100912.72;;;-0.18;74.68
52745;BME280;38637;49.984;20.426;2023-02-11T01:28:15;100902.28;;;-0.21;74.44
52745;BME280;38637;49.984;20.426;2023-02-11T01:30:40;100902.03;;;-0.28;74.59
52745;BME280;38637;49.984;20.426;2023-02-11T01:33:06;100891.59;;;-0.31;75.07
52745;BME280;38637;49.984;20.426;2023-02-11T01:35:31;100893.94;;;-0.36;74.41
52745;BME280;38637;49.984;20.426;2023-02-11T01:37:56;100887.03;;;-0.38;74.95
52745;BME280;38637;49.984;20.426;2023-02-11T01:40:21;100889.84;;;-0.40;74.44
52745;BME280;38637;49.984;20.426;2023-02-11T01:42:47;100879.59;;;-0.44;74.27
52745;BME280;38637;49.984;20.426;2023-02-11T01:48:03;100868.75;;;-0.53;74.59
52745;BME280;38637;49.984;20.426;2023-02-11T01:50:28;100860.03;;;-0.55;74.95
52745;BME280;38637;49.984;20.426;2023-02-11T01:52:54;100856.50;;;-0.55;74.33
52745;BME280;38637;49.984;20.426;2023-02-11T01:55:39;100868.53;;;-0.59;74.56
52745;BME280;38637;49.984;20.426;2023-02-11T01:58:23;100859.94;;;-0.63;74.38
52745;BME280;38637;49.984;20.426;2023-02-11T02:00:49;100857.28;;;-0.63;73.88
52745;BME280;38637;49.984;20.426;2023-02-11T02:03:17;100862.94;;;-0.66;74.25
52745;BME280;38637;49.984;20.426;2023-02-11T02:06:02;100854.34;;;-0.70;73.86
52745;BME280;38637;49.984;20.426;2023-02-11T02:08:35;100858.00;;;-0.71;73.55
52745;BME280;38637;49.984;20.426;2023-02-11T02:11:03;100844.91;;;-0.74;73.66
52745;BME280;38637;49.984;20.426;2023-02-11T02:13:30;100832.38;;;-0.73;73.94
52745;BME280;38637;49.984;20.426;2023-02-11T02:16:09;100807.06;;;-0.71;73.42
52745;BME280;38637;49.984;20.426;2023-02-11T02:18:47;100802.69;;;-0.72;73.07
52745;BME280;38637;49.984;20.426;2023-02-11T02:33:05;100812.06;;;-0.76;72.79
52745;BME280;38637;49.984;20.426;2023-02-11T02:36:07;100821.16;;;-0.86;71.28
52745;BME280;38637;49.984;20.426;2023-02-11T02:38:45;100821.09;;;-0.95;71.53
52745;BME280;38637;49.984;20.426;2023-02-11T02:41:14;100828.72;;;-1.00;71.95
52745;BME280;38637;49.984;20.426;2023-02-11T02:43:45;100838.50;;;-1.08;72.28
52745;BME280;38637;49.984;20.426;2023-02-11T02:46:17;100831.00;;;-1.05;72.46
52745;BME280;38637;49.984;20.426;2023-02-11T02:48:44;100820.81;;;-1.01;71.54
52745;BME280;38637;49.984;20.426;2023-02-11T02:51:39;100826.44;;;-0.95;71.47
52745;BME280;38637;49.984;20.426;2023-02-11T02:56:51;100833.41;;;-0.84;71.53
52745;BME280;38637;49.984;20.426;2023-02-11T03:07:56;100791.53;;;-0.67;71.15
52745;BME280;38637;49.984;20.426;2023-02-11T03:10:30;100803.44;;;-0.61;70.47
52745;BME280;38637;49.984;20.426;2023-02-11T03:12:56;100781.53;;;-0.57;70.71
52745;BME280;38637;49.984;20.426;2023-02-11T03:15:24;100781.94;;;-0.52;70.50
52745;BME280;38637;49.984;20.426;2023-02-11T03:17:53;100790.03;;;-0.43;70.62
52745;BME280;38637;49.984;20.426;2023-02-11T03:20:21;100791.41;;;-0.39;70.16
52745;BME280;38637;49.984;20.426;2023-02-11T03:22:52;100778.34;;;-0.34;69.61
52745;BME280;38637;49.984;20.426;2023-02-11T03:25:21;100776.19;;;-0.31;69.91
52745;BME280;38637;49.984;20.426;2023-02-11T03:28:06;100769.06;;;-0.22;70.08
52745;BME280;38637;49.984;20.426;2023-02-11T03:30:41;100749.13;;;-0.19;69.48
52745;BME280;38637;49.984;20.426;2023-02-11T03:33:28;100743.94;;;-0.13;69.35
52745;BME280;38637;49.984;20.426;2023-02-11T03:35:59;100734.94;;;-0.04;69.67
52745;BME280;38637;49.984;20.426;2023-02-11T03:38:30;100721.88;;;0.02;69.62
52745;BME280;38637;49.984;20.426;2023-02-11T03:40:57;100700.09;;;0.05;69.29
52745;BME280;38637;49.984;20.426;2023-02-11T03:43:33;100697.09;;;0.08;69.00
52745;BME280;38637;49.984;20.426;2023-02-11T03:46:01;100674.25;;;0.04;69.17
52745;BME280;38637;49.984;20.426;2023-02-11T03:48:31;100674.63;;;0.17;68.69
52745;BME280;38637;49.984;20.426;2023-02-11T03:50:58;100671.09;;;0.16;68.37
52745;BME280;38637;49.984;20.426;2023-02-11T03:53:25;100672.44;;;0.20;68.12
52745;BME280;38637;49.984;20.426;2023-02-11T03:55:53;100683.56;;;0.26;68.00
52745;BME280;38637;49.984;20.426;2023-02-11T03:58:19;100676.00;;;0.29;67.79
52745;BME280;38637;49.984;20.426;2023-02-11T04:00:44;100662.59;;;0.29;67.49
52745;BME280;38637;49.984;20.426;2023-02-11T04:03:11;100663.94;;;0.33;67.73
52745;BME280;38637;49.984;20.426;2023-02-11T04:05:37;100650.16;;;0.28;67.77
52745;BME280;38637;49.984;20.426;2023-02-11T04:08:02;100656.22;;;0.38;67.81
52745;BME280;38637;49.984;20.426;2023-02-11T04:10:27;100650.72;;;0.40;67.39
52745;BME280;38637;49.984;20.426;2023-02-11T04:12:53;100637.28;;;0.40;67.75
52745;BME280;38637;49.984;20.426;2023-02-11T04:15:18;100632.56;;;0.42;67.96
52745;BME280;38637;49.984;20.426;2023-02-11T04:17:43;100633.38;;;0.42;67.62
52745;BME280;38637;49.984;20.426;2023-02-11T04:20:10;100635.09;;;0.43;67.20
52745;BME280;38637;49.984;20.426;2023-02-11T04:22:35;100635.59;;;0.47;67.47
52745;BME280;38637;49.984;20.426;2023-02-11T04:25:01;100619.63;;;0.45;67.19
52745;BME280;38637;49.984;20.426;2023-02-11T04:27:28;100621.84;;;0.50;67.17
52745;BME280;38637;49.984;20.426;2023-02-11T04:29:53;100623.69;;;0.50;67.03
52745;BME280;38637;49.984;20.426;2023-02-11T04:32:18;100622.53;;;0.52;67.58
52745;BME280;38637;49.984;20.426;2023-02-11T04:34:44;100604.53;;;0.53;67.52
52745;BME280;38637;49.984;20.426;2023-02-11T04:37:09;100596.28;;;0.54;66.97
52745;BME280;38637;49.984;20.426;2023-02-11T04:39:34;100598.00;;;0.55;66.86
52745;BME280;38637;49.984;20.426;2023-02-11T04:42:00;100586.91;;;0.58;67.45
52745;BME280;38637;49.984;20.426;2023-02-11T04:44:25;100582.72;;;0.56;66.60
52745;BME280;38637;49.984;20.426;2023-02-11T04:46:51;100576.16;;;0.58;66.85
52745;BME280;38637;49.984;20.426;2023-02-11T04:49:16;100569.09;;;0.57;67.22
52745;BME280;38637;49.984;20.426;2023-02-11T04:51:42;100565.41;;;0.58;67.21
52745;BME280;38637;49.984;20.426;2023-02-11T04:54:09;100562.53;;;0.60;66.51
52745;BME280;38637;49.984;20.426;2023-02-11T04:56:34;100554.16;;;0.63;66.63
52745;BME280;38637;49.984;20.426;2023-02-11T04:59:00;100560.53;;;0.62;66.41
52745;BME280;38637;49.984;20.426;2023-02-11T05:01:25;100564.22;;;0.61;66.39
52745;BME280;38637;49.984;20.426;2023-02-11T05:03:50;100566.75;;;0.62;66.14
52745;BME280;38637;49.984;20.426;2023-02-11T05:06:16;100569.09;;;0.65;66.24
52745;BME280;38637;49.984;20.426;2023-02-11T05:08:41;100576.34;;;0.65;66.05
52745;BME280;38637;49.984;20.426;2023-02-11T05:11:08;100580.69;;;0.66;66.39
52745;BME280;38637;49.984;20.426;2023-02-11T05:13:38;100582.34;;;0.67;66.08
52745;BME280;38637;49.984;20.426;2023-02-11T05:16:04;100591.78;;;0.63;66.10
52745;BME280;38637;49.984;20.426;2023-02-11T05:18:29;100595.47;;;0.62;65.90
52745;BME280;38637;49.984;20.426;2023-02-11T05:20:54;100605.22;;;0.63;66.25
52745;BME280;38637;49.984;20.426;2023-02-11T05:23:20;100594.47;;;0.63;66.12
52745;BME280;38637;49.984;20.426;2023-02-11T05:25:45;100598.16;;;0.62;66.26
52745;BME280;38637;49.984;20.426;2023-02-11T05:28:10;100600.03;;;0.61;66.12
52745;BME280;38637;49.984;20.426;2023-02-11T05:30:35;100596.47;;;0.61;66.12
52745;BME280;38637;49.984;20.426;2023-02-11T05:33:01;100598.31;;;0.60;66.54
52745;BME280;38637;49.984;20.426;2023-02-11T05:35:26;100586.06;;;0.58;66.64
52745;BME280;38637;49.984;20.426;2023-02-11T05:37:51;100584.56;;;0.55;66.62
52745;BME280;38637;49.984;20.426;2023-02-11T05:40:17;100581.19;;;0.53;66.95
52745;BME280;38637;49.984;20.426;2023-02-11T05:42:42;100583.34;;;0.58;66.88
52745;BME280;38637;49.984;20.426;2023-02-11T05:45:07;100598.16;;;0.62;66.95
52745;BME280;38637;49.984;20.426;2023-02-11T05:47:33;100591.97;;;0.61;66.69
52745;BME280;38637;49.984;20.426;2023-02-11T05:49:58;100591.09;;;0.53;67.59
52745;BME280;38637;49.984;20.426;2023-02-11T05:52:23;100592.09;;;0.43;68.05
52745;BME280;38637;49.984;20.426;2023-02-11T05:54:49;100590.72;;;0.39;68.78
52745;BME280;38637;49.984;20.426;2023-02-11T05:57:15;100588.34;;;0.20;69.10
52745;BME280;38637;49.984;20.426;2023-02-11T05:59:40;100608.50;;;0.24;69.70
52745;BME280;38637;49.984;20.426;2023-02-11T06:02:06;100608.31;;;0.17;70.13
52745;BME280;38637;49.984;20.426;2023-02-11T06:04:35;100607.66;;;0.15;69.70
52745;BME280;38637;49.984;20.426;2023-02-11T06:07:00;100613.88;;;0.16;69.71
52745;BME280;38637;49.984;20.426;2023-02-11T06:09:26;100625.94;;;0.20;69.56
52745;BME280;38637;49.984;20.426;2023-02-11T06:11:52;100615.06;;;0.21;69.28
52745;BME280;38637;49.984;20.426;2023-02-11T06:14:17;100612.00;;;0.16;69.05
52745;BME280;38637;49.984;20.426;2023-02-11T06:16:42;100597.09;;;0.22;69.12
52745;BME280;38637;49.984;20.426;2023-02-11T06:19:08;100560.69;;;0.28;69.46
52745;BME280;38637;49.984;20.426;2023-02-11T06:21:33;100541.22;;;0.34;69.25
52745;BME280;38637;49.984;20.426;2023-02-11T06:23:58;100526.59;;;0.44;69.04
52745;BME280;38637;49.984;20.426;2023-02-11T06:26:24;100484.59;;;0.52;69.07
52745;BME280;38637;49.984;20.426;2023-02-11T06:28:49;100461.59;;;0.57;68.82
52745;BME280;38637;49.984;20.426;2023-02-11T06:31:15;100436.56;;;0.65;68.95
52745;BME280;38637;49.984;20.426;2023-02-11T06:33:40;100441.06;;;0.73;68.49
52745;BME280;38637;49.984;20.426;2023-02-11T06:36:15;100425.44;;;0.76;68.59
52745;BME280;38637;49.984;20.426;2023-02-11T06:38:41;100420.03;;;0.84;67.85
52745;BME280;38637;49.984;20.426;2023-02-11T06:41:09;100442.72;;;0.90;67.71
52745;BME280;38637;49.984;20.426;2023-02-11T06:43:35;100464.72;;;0.94;67.68
52745;BME280;38637;49.984;20.426;2023-02-11T06:46:00;100474.97;;;0.98;67.14
52745;BME280;38637;49.984;20.426;2023-02-11T06:48:25;100491.25;;;1.05;66.94
52745;BME280;38637;49.984;20.426;2023-02-11T06:50:51;100503.19;;;1.10;66.44
52745;BME280;38637;49.984;20.426;2023-02-11T06:53:16;100520.31;;;1.09;66.41
52745;BME280;38637;49.984;20.426;2023-02-11T06:55:41;100521.53;;;0.99;66.99
52745;BME280;38637;49.984;20.426;2023-02-11T06:58:07;100518.84;;;0.99;66.81
52745;BME280;38637;49.984;20.426;2023-02-11T07:00:32;100515.63;;;1.03;66.90
52745;BME280;38637;49.984;20.426;2023-02-11T07:02:57;100507.53;;;1.11;66.85
52745;BME280;38637;49.984;20.426;2023-02-11T07:05:23;100511.41;;;1.17;66.77
52745;BME280;38637;49.984;20.426;2023-02-11T07:07:48;100512.84;;;1.28;66.44
52745;BME280;38637;49.984;20.426;2023-02-11T07:10:13;100511.34;;;1.33;66.70
52745;BME280;38637;49.984;20.426;2023-02-11T07:12:38;100528.16;;;1.35;66.09
52745;BME280;38637;49.984;20.426;2023-02-11T07:15:04;100524.47;;;1.28;65.87
52745;BME280;38637;49.984;20.426;2023-02-11T07:17:30;100520.97;;;1.20;66.96
52745;BME280;38637;49.984;20.426;2023-02-11T07:19:55;100506.50;;;1.21;66.61
52745;BME280;38637;49.984;20.426;2023-02-11T07:22:20;100521.88;;;1.43;66.66
52745;BME280;38637;49.984;20.426;2023-02-11T07:24:46;100517.28;;;1.60;66.00
52745;BME280;38637;49.984;20.426;2023-02-11T07:27:11;100511.81;;;1.76;65.79
52745;BME280;38637;49.984;20.426;2023-02-11T07:29:37;100500.66;;;1.88;65.49
52745;BME280;38637;49.984;20.426;2023-02-11T07:32:02;100504.31;;;1.95;65.38
52745;BME280;38637;49.984;20.426;2023-02-11T07:34:27;100498.09;;;1.94;65.39
52745;BME280;38637;49.984;20.426;2023-02-11T07:36:53;100491.88;;;1.94;65.07
52745;BME280;38637;49.984;20.426;2023-02-11T07:39:18;100484.78;;;1.93;65.15
52745;BME280;38637;49.984;20.426;2023-02-11T07:41:44;100476.91;;;1.91;65.30
52745;BME280;38637;49.984;20.426;2023-02-11T07:44:12;100469.66;;;1.92;65.20
52745;BME280;38637;49.984;20.426;2023-02-11T07:46:37;100461.78;;;1.90;65.09
52745;BME280;38637;49.984;20.426;2023-02-11T07:49:07;100459.91;;;1.91;65.33
52745;BME280;38637;49.984;20.426;2023-02-11T07:51:32;100466.97;;;1.92;65.44
52745;BME280;38637;49.984;20.426;2023-02-11T07:53:58;100460.75;;;1.91;65.30
52745;BME280;38637;49.984;20.426;2023-02-11T07:56:24;100457.22;;;1.91;65.26
52745;BME280;38637;49.984;20.426;2023-02-11T07:58:50;100463.59;;;1.90;65.24
52745;BME280;38637;49.984;20.426;2023-02-11T08:01:18;100465.94;;;1.93;64.95
52745;BME280;38637;49.984;20.426;2023-02-11T08:03:46;100461.22;;;1.95;64.99
52745;BME280;38637;49.984;20.426;2023-02-11T08:06:14;100469.31;;;1.95;65.07
52745;BME280;38637;49.984;20.426;2023-02-11T08:08:41;100471.63;;;1.98;65.06
52745;BME280;38637;49.984;20.426;2023-02-11T08:11:08;100467.56;;;2.02;65.07
52745;BME280;38637;49.984;20.426;2023-02-11T08:13:34;100464.03;;;2.01;64.82
52745;BME280;38637;49.984;20.426;2023-02-11T08:15:59;100464.28;;;1.92;66.88
52745;BME280;38637;49.984;20.426;2023-02-11T08:18:25;100459.84;;;1.99;66.63
52745;BME280;38637;49.984;20.426;2023-02-11T08:20:50;100455.59;;;2.04;66.12
52745;BME280;38637;49.984;20.426;2023-02-11T08:23:15;100456.84;;;2.17;65.51
52745;BME280;38637;49.984;20.426;2023-02-11T08:25:40;100458.09;;;2.29;65.05
52745;BME280;38637;49.984;20.426;2023-02-11T08:28:06;100461.16;;;2.49;64.50
52745;BME280;38637;49.984;20.426;2023-02-11T08:30:33;100458.34;;;2.57;63.40
52745;BME280;38637;49.984;20.426;2023-02-11T08:32:58;100456.53;;;2.58;62.99
52745;BME280;38637;49.984;20.426;2023-02-11T08:35:23;100461.53;;;2.61;62.92
52745;BME280;38637;49.984;20.426;2023-02-11T08:37:50;100464.03;;;2.62;62.48
52745;BME280;38637;49.984;20.426;2023-02-11T08:40:15;100461.19;;;2.64;62.37
52745;BME280;38637;49.984;20.426;2023-02-11T08:42:41;100462.84;;;2.65;62.57
52745;BME280;38637;49.984;20.426;2023-02-11T08:45:06;100452.88;;;2.65;62.46
52745;BME280;38637;49.984;20.426;2023-02-11T08:47:32;100454.59;;;2.66;62.35
52745;BME280;38637;49.984;20.426;2023-02-11T08:49:57;100450.03;;;2.67;62.35
52745;BME280;38637;49.984;20.426;2023-02-11T08:52:22;100464.16;;;2.69;62.20
52745;BME280;38637;49.984;20.426;2023-02-11T08:54:48;100467.34;;;2.72;62.39
52745;BME280;38637;49.984;20.426;2023-02-11T08:57:13;100467.97;;;2.74;62.05
52745;BME280;38637;49.984;20.426;2023-02-11T08:59:38;100475.53;;;2.79;62.04
52745;BME280;38637;49.984;20.426;2023-02-11T09:02:04;100470.41;;;2.84;61.74
52745;BME280;38637;49.984;20.426;2023-02-11T09:04:30;100405.81;;;2.53;61.46
52745;BME280;38637;49.984;20.426;2023-02-11T09:06:55;100463.38;;;3.13;61.63
52745;BME280;38637;49.984;20.426;2023-02-11T09:09:21;100463.00;;;3.31;61.24
52745;BME280;38637;49.984;20.426;2023-02-11T09:11:46;100455.88;;;3.59;60.55
52745;BME280;38637;49.984;20.426;2023-02-11T09:14:20;100452.50;;;3.94;60.25
52745;BME280;38637;49.984;20.426;2023-02-11T09:16:46;100454.13;;;4.09;59.25
52745;BME280;38637;49.984;20.426;2023-02-11T09:19:11;100443.38;;;4.16;58.83
52745;BME280;38637;49.984;20.426;2023-02-11T09:21:37;100440.94;;;4.21;58.32
52745;BME280;38637;49.984;20.426;2023-02-11T09:24:02;100450.78;;;4.29;58.39
52745;BME280;38637;49.984;20.426;2023-02-11T09:26:30;100454.06;;;4.24;57.36
52745;BME280;38637;49.984;20.426;2023-02-11T09:28:57;100453.88;;;4.26;57.93
52745;BME280;38637;49.984;20.426;2023-02-11T09:31:24;100449.09;;;4.28;57.81
52745;BME280;38637;49.984;20.426;2023-02-11T09:33:52;100445.44;;;4.35;57.95
52745;BME280;38637;49.984;20.426;2023-02-11T09:36:21;100438.41;;;4.41;58.00
52745;BME280;38637;49.984;20.426;2023-02-11T09:38:47;100440.34;;;4.47;57.38
52745;BME280;38637;49.984;20.426;2023-02-11T09:44:15;100421.28;;;4.62;56.61
52745;BME280;38637;49.984;20.426;2023-02-11T09:46:42;100434.72;;;4.77;56.51
52745;BME280;38637;49.984;20.426;2023-02-11T09:49:23;100433.16;;;4.96;56.02
52745;BME280;38637;49.984;20.426;2023-02-11T09:51:53;100431.00;;;5.13;55.23
52745;BME280;38637;49.984;20.426;2023-02-11T09:54:33;100439.41;;;5.31;55.08
52745;BME280;38637;49.984;20.426;2023-02-11T09:57:00;100437.00;;;5.49;54.64
52745;BME280;38637;49.984;20.426;2023-02-11T09:59:25;100433.31;;;5.64;54.05
52745;BME280;38637;49.984;20.426;2023-02-11T10:05:10;100435.63;;;5.67;53.17
52745;BME280;38637;49.984;20.426;2023-02-11T10:08:10;100416.84;;;5.65;53.57
52745;BME280;38637;49.984;20.426;2023-02-11T10:11:01;100409.34;;;5.67;53.37
52745;BME280;38637;49.984;20.426;2023-02-11T10:13:50;100401.63;;;5.64;53.26
52745;BME280;38637;49.984;20.426;2023-02-11T10:16:31;100400.59;;;5.72;53.44
52745;BME280;38637;49.984;20.426;2023-02-11T10:24:19;100384.19;;;5.93;52.66
52745;BME280;38637;49.984;20.426;2023-02-11T10:26:45;100387.97;;;6.06;52.66
52745;BME280;38637;49.984;20.426;2023-02-11T10:29:19;100381.09;;;6.16;53.19
52745;BME280;38637;49.984;20.426;2023-02-11T10:31:49;100368.59;;;6.22;52.77
52745;BME280;38637;49.984;20.426;2023-02-11T10:34:14;100369.44;;;6.16;51.96
52745;BME280;38637;49.984;20.426;2023-02-11T10:36:42;100373.81;;;6.17;51.74
52745;BME280;38637;49.984;20.426;2023-02-11T10:41:44;100368.78;;;6.47;51.44
52745;BME280;38637;49.984;20.426;2023-02-11T10:44:22;100355.00;;;6.55;51.70
52745;BME280;38637;49.984;20.426;2023-02-11T10:46:50;100351.47;;;6.61;50.87
52745;BME280;38637;49.984;20.426;2023-02-11T10:49:37;100344.16;;;6.62;50.27
52745;BME280;38637;49.984;20.426;2023-02-11T10:52:16;100334.13;;;6.56;50.37
52745;BME280;38637;49.984;20.426;2023-02-11T10:54:59;100332.03;;;6.51;49.62
52745;BME280;38637;49.984;20.426;2023-02-11T10:57:36;100327.28;;;6.40;50.37
52745;BME280;38637;49.984;20.426;2023-02-11T11:00:19;100318.28;;;6.39;50.21
52745;BME280;38637;49.984;20.426;2023-02-11T11:02:55;100307.03;;;6.49;50.46
52745;BME280;38637;49.984;20.426;2023-02-11T11:05:29;100290.28;;;6.59;50.37
52745;BME280;38637;49.984;20.426;2023-02-11T11:07:58;100276.91;;;6.64;49.98
52745;BME280;38637;49.984;20.426;2023-02-11T11:10:48;100289.59;;;6.83;49.35
52745;BME280;38637;49.984;20.426;2023-02-11T11:13:30;100270.38;;;6.78;49.60
52745;BME280;38637;49.984;20.426;2023-02-11T11:18:41;100245.53;;;6.81;50.06
52745;BME280;38637;49.984;20.426;2023-02-11T11:21:18;100238.44;;;6.80;49.74
52745;BME280;38637;49.984;20.426;2023-02-11T11:23:53;100239.66;;;6.84;50.38
52745;BME280;38637;49.984;20.426;2023-02-11T11:26:20;100226.16;;;6.71;49.83
52745;BME280;38637;49.984;20.426;2023-02-11T11:28:55;100223.91;;;6.55;50.06
52745;BME280;38637;49.984;20.426;2023-02-11T11:31:33;100226.03;;;6.53;50.50
52745;BME280;38637;49.984;20.426;2023-02-11T11:34:17;100229.78;;;6.58;50.38
52745;BME280;38637;49.984;20.426;2023-02-11T11:36:45;100232.69;;;6.57;49.54
52745;BME280;38637;49.984;20.426;2023-02-11T11:39:19;100216.56;;;6.68;50.11
52745;BME280;38637;49.984;20.426;2023-02-11T11:41:51;100226.75;;;6.73;49.30
52745;BME280;38637;49.984;20.426;2023-02-11T11:44:25;100240.53;;;6.78;49.55
52745;BME280;38637;49.984;20.426;2023-02-11T11:47:14;100245.47;;;6.95;49.10
52745;BME280;38637;49.984;20.426;2023-02-11T11:52:49;100233.53;;;7.34;48.06
52745;BME280;38637;49.984;20.426;2023-02-11T11:55:24;100234.69;;;7.51;47.34
52745;BME280;38637;49.984;20.426;2023-02-11T11:57:51;100234.81;;;7.63;47.23
52745;BME280;38637;49.984;20.426;2023-02-11T12:00:35;100223.81;;;7.51;47.38
52745;BME280;38637;49.984;20.426;2023-02-11T12:08:35;100233.72;;;7.01;49.83
52745;BME280;38637;49.984;20.426;2023-02-11T12:22:24;100218.31;;;6.95;50.12
52745;BME280;38637;49.984;20.426;2023-02-11T12:27:43;100218.44;;;6.68;50.22
52745;BME280;38637;49.984;20.426;2023-02-11T12:33:39;100224.03;;;6.21;51.91
52745;BME280;38637;49.984;20.426;2023-02-11T12:36:21;100234.88;;;6.28;52.13
52745;BME280;38637;49.984;20.426;2023-02-11T12:39:18;100229.88;;;6.25;52.60
52745;BME280;38637;49.984;20.426;2023-02-11T12:44:54;100231.56;;;6.13;53.51
52745;BME280;38637;49.984;20.426;2023-02-11T12:53:01;100217.41;;;5.97;53.72
52745;BME280;38637;49.984;20.426;2023-02-11T12:55:34;100206.72;;;5.89;54.34
52745;BME280;38637;49.984;20.426;2023-02-11T12:58:02;100211.34;;;5.75;54.32
52745;BME280;38637;49.984;20.426;2023-02-11T13:00:30;100200.28;;;5.70;55.04
52745;BME280;38637;49.984;20.426;2023-02-11T13:03:19;100181.94;;;5.66;54.60
52745;BME280;38637;49.984;20.426;2023-02-11T13:05:54;100166.53;;;5.60;55.27
52745;BME280;38637;49.984;20.426;2023-02-11T13:08:48;100175.06;;;5.57;55.50
52745;BME280;38637;49.984;20.426;2023-02-11T13:11:20;100157.78;;;5.58;55.33
52745;BME280;38637;49.984;20.426;2023-02-11T13:16:34;100143.59;;;5.56;55.30
52745;BME280;38637;49.984;20.426;2023-02-11T13:24:40;100143.00;;;5.40;55.67
52745;BME280;38637;49.984;20.426;2023-02-11T13:30:19;100165.28;;;5.29;57.27
52745;BME280;38637;49.984;20.426;2023-02-11T13:35:28;100150.50;;;5.18;57.08
52745;BME280;38637;49.984;20.426;2023-02-11T13:37:56;100137.16;;;5.17;58.25
52745;BME280;38637;49.984;20.426;2023-02-11T13:40:26;100113.41;;;5.25;57.95
52745;BME280;38637;49.984;20.426;2023-02-11T13:43:03;100110.09;;;5.30;58.05
52745;BME280;38637;49.984;20.426;2023-02-11T13:45:33;100101.16;;;5.29;58.42
52745;BME280;38637;49.984;20.426;2023-02-11T13:48:18;100082.38;;;5.28;58.31
52745;BME280;38637;49.984;20.426;2023-02-11T13:50:48;100086.13;;;5.27;59.11
52745;BME280;38637;49.984;20.426;2023-02-11T13:53:16;100082.81;;;5.25;59.35
52745;BME280;38637;49.984;20.426;2023-02-11T13:55:47;100096.34;;;5.25;59.37
52745;BME280;38637;49.984;20.426;2023-02-11T14:14:14;100137.09;;;4.83;62.18
52745;BME280;38637;49.984;20.426;2023-02-11T14:19:36;100146.91;;;4.78;62.92
52745;BME280;38637;49.984;20.426;2023-02-11T14:24:47;100126.03;;;4.65;63.77
52745;BME280;38637;49.984;20.426;2023-02-11T14:29:57;100151.66;;;4.69;63.79
52745;BME280;38637;49.984;20.426;2023-02-11T14:35:26;100158.47;;;4.58;65.32
52745;BME280;38637;49.984;20.426;2023-02-11T14:40:48;100178.22;;;4.52;65.50
52745;BME280;38637;49.984;20.426;2023-02-11T14:43:24;100169.50;;;4.50;66.20
52745;BME280;38637;49.984;20.426;2023-02-11T14:45:53;100177.38;;;4.45;66.80
52745;BME280;38637;49.984;20.426;2023-02-11T14:48:26;100195.25;;;4.46;66.82
52745;BME280;38637;49.984;20.426;2023-02-11T14:51:02;100197.97;;;4.46;67.75
52745;BME280;38637;49.984;20.426;2023-02-11T14:53:31;100194.81;;;4.43;68.58
52745;BME280;38637;49.984;20.426;2023-02-11T14:55:58;100184.63;;;4.38;70.72
52745;BME280;38637;49.984;20.426;2023-02-11T14:58:29;100181.69;;;4.33;72.42